sensor_id;sensor_type;location;lat;lon;timestamp;temperature;humidity
55064;DHT22;40963;52.168;21.296;2024-03-17T00:02:00;6.70;99.90
55064;DHT22;40963;52.168;21.296;2024-03-17T00:04:26;6.60;99.90
55064;DHT22;40963;52.168;21.296;2024-03-17T00:06:52;6.60;99.90
55064;DHT22;40963;52.168;21.296;2024-03-17T00:09:18;6.60;99.90
55064;DHT22;40963;52.168;21.296;2024-03-17T00:11:44;6.50;99.90
55064;DHT22;40963;52.168;21.296;2024-03-17T00:14:10;6.50;99.90
55064;DHT22;40963;52.168;21.296;2024-03-17T00:16:37;6.50;99.90
55064;DHT22;40963;52.168;21.296;2024-03-17T00:19:02;6.50;99.90
55064;DHT22;40963;52.168;21.296;2024-03-17T00:21:28;6.50;99.90
55064;DHT22;40963;52.168;21.296;2024-03-17T00:23:54;6.50;99.90
55064;DHT22;40963;52.168;21.296;2024-03-17T00:26:20;6.40;99.90
55064;DHT22;40963;52.168;21.296;2024-03-17T00:28:46;6.40;99.90
55064;DHT22;40963;52.168;21.296;2024-03-17T00:31:13;6.50;99.90
55064;DHT22;40963;52.168;21.296;2024-03-17T00:33:40;6.40;99.90
55064;DHT22;40963;52.168;21.296;2024-03-17T00:36:06;6.40;99.90
55064;DHT22;40963;52.168;21.296;2024-03-17T00:38:31;6.30;99.90
55064;DHT22;40963;52.168;21.296;2024-03-17T00:40:57;6.40;99.90
55064;DHT22;40963;52.168;21.296;2024-03-17T00:43:22;6.30;99.90
55064;DHT22;40963;52.168;21.296;2024-03-17T00:45:52;6.40;99.90
55064;DHT22;40963;52.168;21.296;2024-03-17T00:48:17;6.40;99.90
55064;DHT22;40963;52.168;21.296;2024-03-17T00:50:44;6.40;99.90
55064;DHT22;40963;52.168;21.296;2024-03-17T00:53:10;6.40;99.90
55064;DHT22;40963;52.168;21.296;2024-03-17T00:55:36;6.40;99.90
55064;DHT22;40963;52.168;21.296;2024-03-17T00:58:02;6.40;99.90
55064;DHT22;40963;52.168;21.296;2024-03-17T01:00:28;6.40;99.90
55064;DHT22;40963;52.168;21.296;2024-03-17T01:02:54;6.40;99.90
55064;DHT22;40963;52.168;21.296;2024-03-17T01:05:19;6.30;99.90
55064;DHT22;40963;52.168;21.296;2024-03-17T01:07:45;6.30;99.90
55064;DHT22;40963;52.168;21.296;2024-03-17T01:10:13;6.30;99.90
55064;DHT22;40963;52.168;21.296;2024-03-17T01:12:38;6.30;99.90
55064;DHT22;40963;52.168;21.296;2024-03-17T01:15:07;6.30;99.90
55064;DHT22;40963;52.168;21.296;2024-03-17T01:17:33;6.30;99.90
55064;DHT22;40963;52.168;21.296;2024-03-17T01:19:59;6.30;99.90
55064;DHT22;40963;52.168;21.296;2024-03-17T01:22:24;6.20;99.90
55064;DHT22;40963;52.168;21.296;2024-03-17T01:24:50;6.20;99.90
55064;DHT22;40963;52.168;21.296;2024-03-17T01:27:15;6.20;99.90
55064;DHT22;40963;52.168;21.296;2024-03-17T01:29:44;6.20;98.50
55064;DHT22;40963;52.168;21.296;2024-03-17T01:32:10;6.20;97.00
55064;DHT22;40963;52.168;21.296;2024-03-17T01:34:38;6.20;95.70
55064;DHT22;40963;52.168;21.296;2024-03-17T01:37:04;6.20;94.50
55064;DHT22;40963;52.168;21.296;2024-03-17T01:39:30;6.20;93.80
55064;DHT22;40963;52.168;21.296;2024-03-17T01:41:57;6.20;93.30
55064;DHT22;40963;52.168;21.296;2024-03-17T01:44:27;6.10;92.90
55064;DHT22;40963;52.168;21.296;2024-03-17T01:46:54;6.10;92.60
55064;DHT22;40963;52.168;21.296;2024-03-17T01:49:21;6.10;92.40
55064;DHT22;40963;52.168;21.296;2024-03-17T01:51:48;6.10;92.20
55064;DHT22;40963;52.168;21.296;2024-03-17T01:54:14;6.10;92.00
55064;DHT22;40963;52.168;21.296;2024-03-17T01:56:41;6.10;92.00
55064;DHT22;40963;52.168;21.296;2024-03-17T01:59:08;6.00;91.90
55064;DHT22;40963;52.168;21.296;2024-03-17T02:01:39;6.00;91.80
55064;DHT22;40963;52.168;21.296;2024-03-17T02:04:06;6.00;91.70
55064;DHT22;40963;52.168;21.296;2024-03-17T02:06:32;5.90;91.70
55064;DHT22;40963;52.168;21.296;2024-03-17T02:08:58;5.90;91.60
55064;DHT22;40963;52.168;21.296;2024-03-17T02:11:27;5.90;91.60
55064;DHT22;40963;52.168;21.296;2024-03-17T02:13:53;5.90;91.40
55064;DHT22;40963;52.168;21.296;2024-03-17T02:16:19;5.80;91.30
55064;DHT22;40963;52.168;21.296;2024-03-17T02:18:45;5.80;91.30
55064;DHT22;40963;52.168;21.296;2024-03-17T02:21:12;5.70;91.10
55064;DHT22;40963;52.168;21.296;2024-03-17T02:23:38;5.70;91.40
55064;DHT22;40963;52.168;21.296;2024-03-17T02:26:03;5.70;91.20
55064;DHT22;40963;52.168;21.296;2024-03-17T02:28:29;5.60;91.10
55064;DHT22;40963;52.168;21.296;2024-03-17T02:30:54;5.60;91.30
55064;DHT22;40963;52.168;21.296;2024-03-17T02:33:20;5.60;91.00
55064;DHT22;40963;52.168;21.296;2024-03-17T02:35:48;5.60;91.00
55064;DHT22;40963;52.168;21.296;2024-03-17T02:38:16;5.60;91.00
55064;DHT22;40963;52.168;21.296;2024-03-17T02:41:02;5.60;90.90
55064;DHT22;40963;52.168;21.296;2024-03-17T02:43:27;5.50;91.00
55064;DHT22;40963;52.168;21.296;2024-03-17T02:45:53;5.50;91.10
55064;DHT22;40963;52.168;21.296;2024-03-17T02:48:18;5.50;91.10
55064;DHT22;40963;52.168;21.296;2024-03-17T02:50:44;5.50;91.20
55064;DHT22;40963;52.168;21.296;2024-03-17T02:53:09;5.50;91.30
55064;DHT22;40963;52.168;21.296;2024-03-17T02:55:35;5.40;91.40
55064;DHT22;40963;52.168;21.296;2024-03-17T02:58:00;5.40;91.50
55064;DHT22;40963;52.168;21.296;2024-03-17T03:00:26;5.40;91.60
55064;DHT22;40963;52.168;21.296;2024-03-17T03:02:51;5.40;91.50
55064;DHT22;40963;52.168;21.296;2024-03-17T03:05:17;5.40;91.80
55064;DHT22;40963;52.168;21.296;2024-03-17T03:07:42;5.30;91.60
55064;DHT22;40963;52.168;21.296;2024-03-17T03:10:08;5.30;91.50
55064;DHT22;40963;52.168;21.296;2024-03-17T03:12:34;5.30;91.30
55064;DHT22;40963;52.168;21.296;2024-03-17T03:14:59;5.20;91.20
55064;DHT22;40963;52.168;21.296;2024-03-17T03:17:25;5.20;91.20
55064;DHT22;40963;52.168;21.296;2024-03-17T03:19:50;5.10;91.10
55064;DHT22;40963;52.168;21.296;2024-03-17T03:22:16;5.10;91.10
55064;DHT22;40963;52.168;21.296;2024-03-17T03:24:42;5.00;91.10
55064;DHT22;40963;52.168;21.296;2024-03-17T03:27:07;5.00;91.20
55064;DHT22;40963;52.168;21.296;2024-03-17T03:29:33;5.00;91.20
55064;DHT22;40963;52.168;21.296;2024-03-17T03:31:59;4.90;91.30
55064;DHT22;40963;52.168;21.296;2024-03-17T03:34:24;4.90;91.30
55064;DHT22;40963;52.168;21.296;2024-03-17T03:36:50;4.90;91.40
55064;DHT22;40963;52.168;21.296;2024-03-17T03:39:17;4.90;91.40
55064;DHT22;40963;52.168;21.296;2024-03-17T03:41:44;4.80;91.30
55064;DHT22;40963;52.168;21.296;2024-03-17T03:44:09;4.80;91.40
55064;DHT22;40963;52.168;21.296;2024-03-17T03:46:36;4.80;91.50
55064;DHT22;40963;52.168;21.296;2024-03-17T03:49:01;4.80;91.60
55064;DHT22;40963;52.168;21.296;2024-03-17T03:51:27;4.80;91.40
55064;DHT22;40963;52.168;21.296;2024-03-17T03:53:52;4.80;91.50
55064;DHT22;40963;52.168;21.296;2024-03-17T03:56:18;4.80;91.40
55064;DHT22;40963;52.168;21.296;2024-03-17T03:58:43;4.80;91.30
55064;DHT22;40963;52.168;21.296;2024-03-17T04:01:11;4.80;91.20
55064;DHT22;40963;52.168;21.296;2024-03-17T04:03:37;4.80;91.10
55064;DHT22;40963;52.168;21.296;2024-03-17T04:06:03;4.90;91.20
55064;DHT22;40963;52.168;21.296;2024-03-17T04:08:30;4.90;91.20
55064;DHT22;40963;52.168;21.296;2024-03-17T04:10:55;4.90;91.30
55064;DHT22;40963;52.168;21.296;2024-03-17T04:13:21;4.90;91.50
55064;DHT22;40963;52.168;21.296;2024-03-17T04:15:48;4.90;91.40
55064;DHT22;40963;52.168;21.296;2024-03-17T04:18:13;4.90;91.40
55064;DHT22;40963;52.168;21.296;2024-03-17T04:20:41;4.90;91.40
55064;DHT22;40963;52.168;21.296;2024-03-17T04:23:07;4.90;91.50
55064;DHT22;40963;52.168;21.296;2024-03-17T04:25:32;4.80;91.60
55064;DHT22;40963;52.168;21.296;2024-03-17T04:27:58;4.90;91.80
55064;DHT22;40963;52.168;21.296;2024-03-17T04:30:23;4.90;91.90
55064;DHT22;40963;52.168;21.296;2024-03-17T04:32:49;4.90;92.10
55064;DHT22;40963;52.168;21.296;2024-03-17T04:35:15;4.80;92.10
55064;DHT22;40963;52.168;21.296;2024-03-17T04:37:40;4.90;92.30
55064;DHT22;40963;52.168;21.296;2024-03-17T04:40:07;4.80;92.50
55064;DHT22;40963;52.168;21.296;2024-03-17T04:42:35;4.80;92.70
55064;DHT22;40963;52.168;21.296;2024-03-17T04:45:00;4.80;92.90
55064;DHT22;40963;52.168;21.296;2024-03-17T04:47:26;4.80;93.10
55064;DHT22;40963;52.168;21.296;2024-03-17T04:49:51;4.80;93.30
55064;DHT22;40963;52.168;21.296;2024-03-17T04:52:17;4.80;93.50
55064;DHT22;40963;52.168;21.296;2024-03-17T04:54:42;4.80;93.50
55064;DHT22;40963;52.168;21.296;2024-03-17T04:57:08;4.80;93.60
55064;DHT22;40963;52.168;21.296;2024-03-17T04:59:34;4.80;93.80
55064;DHT22;40963;52.168;21.296;2024-03-17T05:02:01;4.80;93.80
55064;DHT22;40963;52.168;21.296;2024-03-17T05:04:27;4.80;93.90
55064;DHT22;40963;52.168;21.296;2024-03-17T05:06:53;4.80;93.80
55064;DHT22;40963;52.168;21.296;2024-03-17T05:09:19;4.90;93.90
55064;DHT22;40963;52.168;21.296;2024-03-17T05:11:45;4.90;93.80
55064;DHT22;40963;52.168;21.296;2024-03-17T05:14:11;4.90;93.70
55064;DHT22;40963;52.168;21.296;2024-03-17T05:16:36;4.90;93.70
55064;DHT22;40963;52.168;21.296;2024-03-17T05:19:02;4.90;93.60
55064;DHT22;40963;52.168;21.296;2024-03-17T05:21:29;4.90;93.20
55064;DHT22;40963;52.168;21.296;2024-03-17T05:23:57;4.90;93.20
55064;DHT22;40963;52.168;21.296;2024-03-17T05:26:23;4.90;92.90
55064;DHT22;40963;52.168;21.296;2024-03-17T05:28:50;4.90;92.90
55064;DHT22;40963;52.168;21.296;2024-03-17T05:31:15;4.90;92.80
55064;DHT22;40963;52.168;21.296;2024-03-17T05:33:43;4.90;92.70
55064;DHT22;40963;52.168;21.296;2024-03-17T05:36:09;4.90;92.40
55064;DHT22;40963;52.168;21.296;2024-03-17T05:38:34;4.90;92.30
55064;DHT22;40963;52.168;21.296;2024-03-17T05:41:02;5.00;92.30
55064;DHT22;40963;52.168;21.296;2024-03-17T05:43:32;5.00;92.20
55064;DHT22;40963;52.168;21.296;2024-03-17T05:45:59;5.00;92.20
55064;DHT22;40963;52.168;21.296;2024-03-17T05:48:29;5.00;92.10
55064;DHT22;40963;52.168;21.296;2024-03-17T05:50:55;5.00;92.10
55064;DHT22;40963;52.168;21.296;2024-03-17T05:53:21;5.00;92.20
55064;DHT22;40963;52.168;21.296;2024-03-17T05:55:49;5.10;92.30
55064;DHT22;40963;52.168;21.296;2024-03-17T05:58:15;5.10;92.40
55064;DHT22;40963;52.168;21.296;2024-03-17T06:00:40;5.10;92.60
55064;DHT22;40963;52.168;21.296;2024-03-17T06:03:07;5.10;92.90
55064;DHT22;40963;52.168;21.296;2024-03-17T06:05:33;5.20;93.10
55064;DHT22;40963;52.168;21.296;2024-03-17T06:08:03;5.20;93.30
55064;DHT22;40963;52.168;21.296;2024-03-17T06:10:32;5.20;93.70
55064;DHT22;40963;52.168;21.296;2024-03-17T06:12:59;5.20;94.10
55064;DHT22;40963;52.168;21.296;2024-03-17T06:15:25;5.20;94.40
55064;DHT22;40963;52.168;21.296;2024-03-17T06:17:52;5.20;94.60
55064;DHT22;40963;52.168;21.296;2024-03-17T06:20:18;5.20;94.80
55064;DHT22;40963;52.168;21.296;2024-03-17T06:22:44;5.20;95.10
55064;DHT22;40963;52.168;21.296;2024-03-17T06:25:11;5.20;95.70
55064;DHT22;40963;52.168;21.296;2024-03-17T06:27:37;5.20;96.30
55064;DHT22;40963;52.168;21.296;2024-03-17T06:30:02;5.30;96.60
55064;DHT22;40963;52.168;21.296;2024-03-17T06:32:35;5.30;96.90
55064;DHT22;40963;52.168;21.296;2024-03-17T06:35:03;5.40;96.40
55064;DHT22;40963;52.168;21.296;2024-03-17T06:37:29;5.40;95.80
55064;DHT22;40963;52.168;21.296;2024-03-17T06:39:54;5.40;95.20
55064;DHT22;40963;52.168;21.296;2024-03-17T06:42:20;5.50;95.20
55064;DHT22;40963;52.168;21.296;2024-03-17T06:44:46;5.50;94.80
55064;DHT22;40963;52.168;21.296;2024-03-17T06:47:12;5.50;93.80
55064;DHT22;40963;52.168;21.296;2024-03-17T06:49:37;5.50;93.50
55064;DHT22;40963;52.168;21.296;2024-03-17T06:52:03;5.50;92.70
55064;DHT22;40963;52.168;21.296;2024-03-17T06:54:29;5.50;92.10
55064;DHT22;40963;52.168;21.296;2024-03-17T06:56:54;5.50;91.90
55064;DHT22;40963;52.168;21.296;2024-03-17T06:59:20;5.50;91.40
55064;DHT22;40963;52.168;21.296;2024-03-17T07:01:49;5.60;91.30
55064;DHT22;40963;52.168;21.296;2024-03-17T07:04:15;5.60;91.20
55064;DHT22;40963;52.168;21.296;2024-03-17T07:06:42;5.60;91.30
55064;DHT22;40963;52.168;21.296;2024-03-17T07:09:07;5.70;90.70
55064;DHT22;40963;52.168;21.296;2024-03-17T07:11:34;5.80;90.30
55064;DHT22;40963;52.168;21.296;2024-03-17T07:13:59;5.90;90.20
55064;DHT22;40963;52.168;21.296;2024-03-17T07:16:25;5.80;88.80
55064;DHT22;40963;52.168;21.296;2024-03-17T07:18:51;5.90;88.50
55064;DHT22;40963;52.168;21.296;2024-03-17T07:21:18;5.90;88.50
55064;DHT22;40963;52.168;21.296;2024-03-17T07:23:43;5.90;88.30
55064;DHT22;40963;52.168;21.296;2024-03-17T07:26:09;5.90;87.50
55064;DHT22;40963;52.168;21.296;2024-03-17T07:28:34;5.90;87.40
55064;DHT22;40963;52.168;21.296;2024-03-17T07:31:00;5.90;87.30
55064;DHT22;40963;52.168;21.296;2024-03-17T07:33:26;6.00;87.50
55064;DHT22;40963;52.168;21.296;2024-03-17T07:35:58;6.00;87.30
55064;DHT22;40963;52.168;21.296;2024-03-17T07:38:27;6.00;86.90
55064;DHT22;40963;52.168;21.296;2024-03-17T07:41:03;6.10;87.10
55064;DHT22;40963;52.168;21.296;2024-03-17T07:43:32;6.10;86.80
55064;DHT22;40963;52.168;21.296;2024-03-17T07:48:31;6.10;86.00
55064;DHT22;40963;52.168;21.296;2024-03-17T07:50:59;6.10;86.50
55064;DHT22;40963;52.168;21.296;2024-03-17T07:53:26;6.10;86.60
55064;DHT22;40963;52.168;21.296;2024-03-17T07:56:03;6.20;86.80
55064;DHT22;40963;52.168;21.296;2024-03-17T07:58:32;6.20;86.40
55064;DHT22;40963;52.168;21.296;2024-03-17T08:01:03;6.20;86.10
55064;DHT22;40963;52.168;21.296;2024-03-17T08:03:30;6.20;86.40
55064;DHT22;40963;52.168;21.296;2024-03-17T08:05:57;6.20;86.40
55064;DHT22;40963;52.168;21.296;2024-03-17T08:08:22;6.20;86.30
55064;DHT22;40963;52.168;21.296;2024-03-17T08:10:48;6.20;86.30
55064;DHT22;40963;52.168;21.296;2024-03-17T08:13:15;6.10;86.80
55064;DHT22;40963;52.168;21.296;2024-03-17T08:15:44;6.10;87.10
55064;DHT22;40963;52.168;21.296;2024-03-17T08:18:13;6.20;86.90
55064;DHT22;40963;52.168;21.296;2024-03-17T08:20:39;6.20;86.90
55064;DHT22;40963;52.168;21.296;2024-03-17T08:23:06;6.20;86.90
55064;DHT22;40963;52.168;21.296;2024-03-17T08:25:35;6.20;87.00
55064;DHT22;40963;52.168;21.296;2024-03-17T08:28:01;6.20;87.20
55064;DHT22;40963;52.168;21.296;2024-03-17T08:30:27;6.20;87.10
55064;DHT22;40963;52.168;21.296;2024-03-17T08:32:52;6.20;87.00
55064;DHT22;40963;52.168;21.296;2024-03-17T08:35:18;6.20;87.00
55064;DHT22;40963;52.168;21.296;2024-03-17T08:37:43;6.30;86.90
55064;DHT22;40963;52.168;21.296;2024-03-17T08:40:10;6.30;87.20
55064;DHT22;40963;52.168;21.296;2024-03-17T08:42:36;6.20;87.10
55064;DHT22;40963;52.168;21.296;2024-03-17T08:45:02;6.30;87.20
55064;DHT22;40963;52.168;21.296;2024-03-17T08:47:28;6.30;87.70
55064;DHT22;40963;52.168;21.296;2024-03-17T08:49:54;6.40;88.00
55064;DHT22;40963;52.168;21.296;2024-03-17T08:52:20;6.40;87.20
55064;DHT22;40963;52.168;21.296;2024-03-17T08:54:49;6.40;87.00
55064;DHT22;40963;52.168;21.296;2024-03-17T08:57:17;6.40;87.50
55064;DHT22;40963;52.168;21.296;2024-03-17T08:59:45;6.50;87.40
55064;DHT22;40963;52.168;21.296;2024-03-17T09:02:13;6.50;87.60
55064;DHT22;40963;52.168;21.296;2024-03-17T09:04:40;6.50;87.00
55064;DHT22;40963;52.168;21.296;2024-03-17T09:07:06;6.50;86.70
55064;DHT22;40963;52.168;21.296;2024-03-17T09:09:31;6.50;86.70
55064;DHT22;40963;52.168;21.296;2024-03-17T09:11:57;6.40;86.60
55064;DHT22;40963;52.168;21.296;2024-03-17T09:14:22;6.40;86.70
55064;DHT22;40963;52.168;21.296;2024-03-17T09:16:48;6.40;87.20
55064;DHT22;40963;52.168;21.296;2024-03-17T09:19:14;6.50;87.10
55064;DHT22;40963;52.168;21.296;2024-03-17T09:21:39;6.50;86.90
55064;DHT22;40963;52.168;21.296;2024-03-17T09:24:06;6.50;87.10
55064;DHT22;40963;52.168;21.296;2024-03-17T09:26:33;6.50;87.20
55064;DHT22;40963;52.168;21.296;2024-03-17T09:28:59;6.50;87.30
55064;DHT22;40963;52.168;21.296;2024-03-17T09:31:25;6.50;87.10
55064;DHT22;40963;52.168;21.296;2024-03-17T09:33:51;6.50;87.00
55064;DHT22;40963;52.168;21.296;2024-03-17T09:36:16;6.50;87.00
55064;DHT22;40963;52.168;21.296;2024-03-17T09:38:43;6.50;87.40
55064;DHT22;40963;52.168;21.296;2024-03-17T09:43:43;6.40;86.90
55064;DHT22;40963;52.168;21.296;2024-03-17T09:46:10;6.30;86.90
55064;DHT22;40963;52.168;21.296;2024-03-17T09:48:36;6.30;87.50
55064;DHT22;40963;52.168;21.296;2024-03-17T09:51:02;6.30;87.60
55064;DHT22;40963;52.168;21.296;2024-03-17T09:53:29;6.20;88.10
55064;DHT22;40963;52.168;21.296;2024-03-17T09:56:10;6.10;88.70
55064;DHT22;40963;52.168;21.296;2024-03-17T09:58:36;6.00;89.10
55064;DHT22;40963;52.168;21.296;2024-03-17T10:01:02;5.90;89.30
55064;DHT22;40963;52.168;21.296;2024-03-17T10:03:50;5.70;89.70
55064;DHT22;40963;52.168;21.296;2024-03-17T10:06:20;5.70;90.20
55064;DHT22;40963;52.168;21.296;2024-03-17T10:08:48;5.70;90.30
55064;DHT22;40963;52.168;21.296;2024-03-17T10:11:16;5.70;90.40
55064;DHT22;40963;52.168;21.296;2024-03-17T10:13:43;5.60;90.60
55064;DHT22;40963;52.168;21.296;2024-03-17T10:16:26;5.70;90.60
55064;DHT22;40963;52.168;21.296;2024-03-17T10:19:12;5.80;90.50
55064;DHT22;40963;52.168;21.296;2024-03-17T10:21:42;5.90;90.50
55064;DHT22;40963;52.168;21.296;2024-03-17T10:24:13;5.90;90.50
55064;DHT22;40963;52.168;21.296;2024-03-17T10:29:29;6.00;90.10
55064;DHT22;40963;52.168;21.296;2024-03-17T10:32:01;6.10;90.20
55064;DHT22;40963;52.168;21.296;2024-03-17T10:34:29;6.20;90.40
55064;DHT22;40963;52.168;21.296;2024-03-17T10:37:10;6.20;89.40
55064;DHT22;40963;52.168;21.296;2024-03-17T10:39:40;6.20;89.20
55064;DHT22;40963;52.168;21.296;2024-03-17T10:42:07;6.30;89.40
55064;DHT22;40963;52.168;21.296;2024-03-17T10:44:40;6.40;89.10
55064;DHT22;40963;52.168;21.296;2024-03-17T10:47:07;6.40;89.00
55064;DHT22;40963;52.168;21.296;2024-03-17T10:49:38;6.50;88.70
55064;DHT22;40963;52.168;21.296;2024-03-17T10:52:06;6.50;88.30
55064;DHT22;40963;52.168;21.296;2024-03-17T10:54:33;6.40;87.80
55064;DHT22;40963;52.168;21.296;2024-03-17T10:59:48;6.30;87.70
55064;DHT22;40963;52.168;21.296;2024-03-17T11:02:25;6.30;87.70
55064;DHT22;40963;52.168;21.296;2024-03-17T11:04:58;6.30;88.10
55064;DHT22;40963;52.168;21.296;2024-03-17T11:07:24;6.20;88.10
55064;DHT22;40963;52.168;21.296;2024-03-17T11:09:52;6.10;88.60
55064;DHT22;40963;52.168;21.296;2024-03-17T11:17:47;6.20;90.00
55064;DHT22;40963;52.168;21.296;2024-03-17T11:20:24;6.20;90.00
55064;DHT22;40963;52.168;21.296;2024-03-17T11:22:54;6.20;89.80
55064;DHT22;40963;52.168;21.296;2024-03-17T11:27:55;6.10;90.10
55064;DHT22;40963;52.168;21.296;2024-03-17T11:41:40;6.10;89.70
55064;DHT22;40963;52.168;21.296;2024-03-17T11:46:49;6.20;90.10
55064;DHT22;40963;52.168;21.296;2024-03-17T11:49:26;6.20;90.00
55064;DHT22;40963;52.168;21.296;2024-03-17T11:52:03;6.20;90.00
55064;DHT22;40963;52.168;21.296;2024-03-17T11:54:34;6.20;90.10
55064;DHT22;40963;52.168;21.296;2024-03-17T11:57:02;6.20;90.20
55064;DHT22;40963;52.168;21.296;2024-03-17T11:59:28;6.20;90.30
55064;DHT22;40963;52.168;21.296;2024-03-17T12:01:54;6.20;90.40
55064;DHT22;40963;52.168;21.296;2024-03-17T12:04:21;6.20;90.30
55064;DHT22;40963;52.168;21.296;2024-03-17T12:06:48;6.20;90.00
55064;DHT22;40963;52.168;21.296;2024-03-17T12:09:22;6.20;90.10
55064;DHT22;40963;52.168;21.296;2024-03-17T12:14:29;6.00;90.10
55064;DHT22;40963;52.168;21.296;2024-03-17T12:16:56;6.00;90.40
55064;DHT22;40963;52.168;21.296;2024-03-17T12:19:22;5.90;90.60
55064;DHT22;40963;52.168;21.296;2024-03-17T12:21:54;5.80;90.90
55064;DHT22;40963;52.168;21.296;2024-03-17T12:24:24;5.70;91.30
55064;DHT22;40963;52.168;21.296;2024-03-17T12:26:52;5.70;91.60
55064;DHT22;40963;52.168;21.296;2024-03-17T12:31:51;5.60;91.70
55064;DHT22;40963;52.168;21.296;2024-03-17T12:34:20;5.50;91.70
55064;DHT22;40963;52.168;21.296;2024-03-17T12:36:46;5.50;91.80
55064;DHT22;40963;52.168;21.296;2024-03-17T12:39:19;5.50;91.60
55064;DHT22;40963;52.168;21.296;2024-03-17T12:41:52;5.50;91.40
55064;DHT22;40963;52.168;21.296;2024-03-17T12:44:26;5.50;91.30
55064;DHT22;40963;52.168;21.296;2024-03-17T12:46:55;5.60;91.30
55064;DHT22;40963;52.168;21.296;2024-03-17T12:49:21;5.60;90.90
55064;DHT22;40963;52.168;21.296;2024-03-17T12:51:47;5.60;90.60
55064;DHT22;40963;52.168;21.296;2024-03-17T12:54:15;5.70;90.80
55064;DHT22;40963;52.168;21.296;2024-03-17T12:56:40;5.70;90.60
55064;DHT22;40963;52.168;21.296;2024-03-17T12:59:24;5.90;90.30
55064;DHT22;40963;52.168;21.296;2024-03-17T13:02:12;5.90;90.20
55064;DHT22;40963;52.168;21.296;2024-03-17T13:04:38;6.00;90.10
55064;DHT22;40963;52.168;21.296;2024-03-17T13:07:13;6.10;90.00
55064;DHT22;40963;52.168;21.296;2024-03-17T13:09:38;6.20;89.00
55064;DHT22;40963;52.168;21.296;2024-03-17T13:12:14;6.20;88.40
55064;DHT22;40963;52.168;21.296;2024-03-17T13:14:40;6.30;87.80
55064;DHT22;40963;52.168;21.296;2024-03-17T13:17:07;6.20;87.20
55064;DHT22;40963;52.168;21.296;2024-03-17T13:19:41;6.10;87.30
55064;DHT22;40963;52.168;21.296;2024-03-17T13:22:08;6.10;88.00
55064;DHT22;40963;52.168;21.296;2024-03-17T13:24:34;6.10;88.20
55064;DHT22;40963;52.168;21.296;2024-03-17T13:27:00;6.10;88.40
55064;DHT22;40963;52.168;21.296;2024-03-17T13:29:31;6.10;88.30
55064;DHT22;40963;52.168;21.296;2024-03-17T13:31:58;6.10;88.50
55064;DHT22;40963;52.168;21.296;2024-03-17T13:34:24;6.10;88.20
55064;DHT22;40963;52.168;21.296;2024-03-17T13:36:53;6.10;88.50
55064;DHT22;40963;52.168;21.296;2024-03-17T13:39:18;6.20;88.30
55064;DHT22;40963;52.168;21.296;2024-03-17T13:41:46;6.20;87.70
55064;DHT22;40963;52.168;21.296;2024-03-17T13:44:12;6.20;87.50
55064;DHT22;40963;52.168;21.296;2024-03-17T13:46:38;6.20;87.00
55064;DHT22;40963;52.168;21.296;2024-03-17T13:49:10;6.20;86.80
55064;DHT22;40963;52.168;21.296;2024-03-17T13:51:36;6.10;86.70
55064;DHT22;40963;52.168;21.296;2024-03-17T13:54:01;6.10;86.70
55064;DHT22;40963;52.168;21.296;2024-03-17T13:56:27;6.10;86.20
55064;DHT22;40963;52.168;21.296;2024-03-17T13:58:53;6.00;86.60
55064;DHT22;40963;52.168;21.296;2024-03-17T14:01:18;6.00;86.60
55064;DHT22;40963;52.168;21.296;2024-03-17T14:03:44;5.90;87.10
55064;DHT22;40963;52.168;21.296;2024-03-17T14:06:11;5.80;88.20
55064;DHT22;40963;52.168;21.296;2024-03-17T14:08:36;5.60;89.10
55064;DHT22;40963;52.168;21.296;2024-03-17T14:11:02;5.40;90.10
55064;DHT22;40963;52.168;21.296;2024-03-17T14:13:29;5.20;90.80
55064;DHT22;40963;52.168;21.296;2024-03-17T14:15:56;4.90;91.70
55064;DHT22;40963;52.168;21.296;2024-03-17T14:18:21;4.80;92.70
55064;DHT22;40963;52.168;21.296;2024-03-17T14:20:47;4.60;93.60
55064;DHT22;40963;52.168;21.296;2024-03-17T14:23:12;4.50;95.20
55064;DHT22;40963;52.168;21.296;2024-03-17T14:25:38;4.40;97.70
55064;DHT22;40963;52.168;21.296;2024-03-17T14:28:05;4.40;99.90
55064;DHT22;40963;52.168;21.296;2024-03-17T14:30:30;4.30;99.90
55064;DHT22;40963;52.168;21.296;2024-03-17T14:32:58;4.30;99.90
55064;DHT22;40963;52.168;21.296;2024-03-17T14:35:23;4.30;99.90
55064;DHT22;40963;52.168;21.296;2024-03-17T14:37:50;4.30;99.90
55064;DHT22;40963;52.168;21.296;2024-03-17T14:40:17;4.30;99.90
55064;DHT22;40963;52.168;21.296;2024-03-17T14:42:47;4.20;99.90
55064;DHT22;40963;52.168;21.296;2024-03-17T14:45:13;4.20;99.90
55064;DHT22;40963;52.168;21.296;2024-03-17T14:47:39;4.20;99.90
55064;DHT22;40963;52.168;21.296;2024-03-17T14:50:05;4.20;99.90
55064;DHT22;40963;52.168;21.296;2024-03-17T14:52:30;4.10;99.90
55064;DHT22;40963;52.168;21.296;2024-03-17T14:54:57;4.10;99.90
55064;DHT22;40963;52.168;21.296;2024-03-17T14:57:22;4.10;99.90
55064;DHT22;40963;52.168;21.296;2024-03-17T14:59:48;4.00;99.90
55064;DHT22;40963;52.168;21.296;2024-03-17T15:02:14;4.00;99.90
55064;DHT22;40963;52.168;21.296;2024-03-17T15:04:39;4.00;99.90
55064;DHT22;40963;52.168;21.296;2024-03-17T15:07:05;4.00;99.90
55064;DHT22;40963;52.168;21.296;2024-03-17T15:09:30;3.90;99.90
55064;DHT22;40963;52.168;21.296;2024-03-17T15:11:57;3.90;99.90
55064;DHT22;40963;52.168;21.296;2024-03-17T15:14:23;3.90;99.90
55064;DHT22;40963;52.168;21.296;2024-03-17T15:16:50;3.90;99.90
55064;DHT22;40963;52.168;21.296;2024-03-17T15:19:16;3.90;99.90
55064;DHT22;40963;52.168;21.296;2024-03-17T15:21:41;3.80;99.90
55064;DHT22;40963;52.168;21.296;2024-03-17T15:24:07;3.80;99.90
55064;DHT22;40963;52.168;21.296;2024-03-17T15:26:32;3.80;99.90
55064;DHT22;40963;52.168;21.296;2024-03-17T15:28:58;3.80;99.90
55064;DHT22;40963;52.168;21.296;2024-03-17T15:31:29;3.70;99.90
55064;DHT22;40963;52.168;21.296;2024-03-17T15:33:55;3.70;99.90
55064;DHT22;40963;52.168;21.296;2024-03-17T15:36:22;3.60;99.90
55064;DHT22;40963;52.168;21.296;2024-03-17T15:38:50;3.50;99.90
55064;DHT22;40963;52.168;21.296;2024-03-17T15:41:15;3.40;99.90
55064;DHT22;40963;52.168;21.296;2024-03-17T15:43:41;3.40;99.90
55064;DHT22;40963;52.168;21.296;2024-03-17T15:46:19;3.40;99.90
55064;DHT22;40963;52.168;21.296;2024-03-17T15:48:45;3.40;99.90
55064;DHT22;40963;52.168;21.296;2024-03-17T15:51:11;3.40;99.90
55064;DHT22;40963;52.168;21.296;2024-03-17T15:53:37;3.40;99.90
55064;DHT22;40963;52.168;21.296;2024-03-17T15:56:04;3.30;99.90
55064;DHT22;40963;52.168;21.296;2024-03-17T15:58:30;3.30;99.90
55064;DHT22;40963;52.168;21.296;2024-03-17T16:00:57;3.30;99.90
55064;DHT22;40963;52.168;21.296;2024-03-17T16:03:30;3.30;99.90
55064;DHT22;40963;52.168;21.296;2024-03-17T16:05:59;3.20;99.90
55064;DHT22;40963;52.168;21.296;2024-03-17T16:08:27;3.20;99.90